Time;durP1;ratioP1;P1;durP2;ratioP2;P2;SDS_P1;SDS_P2;PMS_P1;PMS_P2;Temp;Humidity;BMP_temperature;BMP_pressure;BME280_temperature;BME280_humidity;BME280_pressure;Samples;Min_cycle;Max_cycle;Signal;HPM_P1;HPM_P2
2022/06/01 00:01:29;;;;;;;0.50;0.50;;;22.20;46.20;;;;;;5055173;28;20036;-59
2022/06/01 00:03:55;;;;;;;0.45;0.45;;;22.20;46.20;;;;;;5055272;28;20027;-58
2022/06/01 00:06:21;;;;;;;0.50;0.50;;;22.20;46.10;;;;;;5053036;28;20593;-63
2022/06/01 00:08:47;;;;;;;0.60;0.50;;;22.20;46.10;;;;;;5052647;28;20499;-62
2022/06/01 00:11:13;;;;;;;0.50;0.50;;;22.20;46.10;;;;;;5056607;28;20110;-59
2022/06/01 00:13:40;;;;;;;0.50;0.50;;;22.20;46.20;;;;;;5056167;28;20697;-60
2022/06/01 00:16:07;;;;;;;0.60;0.60;;;22.20;46.20;;;;;;5055635;28;20017;-63
2022/06/01 00:18:33;;;;;;;0.50;0.50;;;22.20;46.20;;;;;;5056003;28;20064;-58
2022/06/01 00:20:59;;;;;;;1.20;0.68;;;22.20;46.20;;;;;;5057514;28;20025;-61
2022/06/01 00:23:25;;;;;;;0.60;0.60;;;22.20;46.10;;;;;;5059089;28;20147;-63
2022/06/01 00:25:51;;;;;;;0.63;0.60;;;22.20;46.10;;;;;;5057491;28;20094;-59
2022/06/01 00:28:16;;;;;;;0.60;0.60;;;22.20;46.10;;;;;;5059062;28;20047;-64
2022/06/01 00:30:42;;;;;;;0.85;0.50;;;22.20;46.10;;;;;;5058814;28;20071;-60
2022/06/01 00:33:08;;;;;;;1.20;0.50;;;22.20;46.10;;;;;;5057729;28;20025;-62
2022/06/01 00:35:34;;;;;;;1.27;0.80;;;22.20;46.10;;;;;;5060282;28;20036;-57
2022/06/01 00:38:00;;;;;;;0.50;0.50;;;22.20;46.10;;;;;;5056898;28;20059;-58
2022/06/01 00:40:28;;;;;;;0.65;0.60;;;22.20;46.10;;;;;;5058728;28;20024;-63
2022/06/01 00:42:59;;;;;;;0.60;0.50;;;22.20;46.10;;;;;;5058315;28;20025;-63
2022/06/01 00:45:28;;;;;;;0.93;0.70;;;22.20;46.10;;;;;;5059761;28;20100;-61
2022/06/01 00:47:54;;;;;;;0.68;0.57;;;22.20;46.10;;;;;;5056153;28;20024;-62
2022/06/01 00:50:31;;;;;;;0.80;0.70;;;22.20;46.10;;;;;;5059339;28;20554;-64
2022/06/01 00:53:17;;;;;;;0.60;0.60;;;22.20;46.10;;;;;;5056364;28;20364;-62
2022/06/01 00:55:46;;;;;;;0.50;0.50;;;22.20;46.10;;;;;;5058790;28;20043;-63
2022/06/01 00:58:42;;;;;;;0.50;0.50;;;22.10;46.10;;;;;;5057646;28;20059;-61
2022/06/01 01:01:20;;;;;;;0.60;0.60;;;22.10;46.10;;;;;;5039636;28;20117;-62
2022/06/01 01:03:49;;;;;;;0.82;0.60;;;22.10;46.00;;;;;;5058842;28;20036;-62
2022/06/01 01:06:27;;;;;;;0.50;0.50;;;22.10;46.10;;;;;;5056332;28;20115;-62
2022/06/01 01:08:53;;;;;;;1.05;0.50;;;22.10;46.00;;;;;;5055948;28;20123;-60
2022/06/01 01:11:40;;;;;;;0.57;0.52;;;22.20;46.10;;;;;;5058804;28;20773;-63
2022/06/01 01:14:06;;;;;;;0.60;0.52;;;22.10;46.00;;;;;;5058175;28;20343;-58
2022/06/01 01:16:32;;;;;;;0.43;0.40;;;22.10;46.00;;;;;;5058382;28;20449;-64
2022/06/01 01:22:36;;;;;;;0.47;0.47;;;22.10;46.00;;;;;;5050952;28;20031;-61
2022/06/01 01:25:23;;;;;;;0.98;0.60;;;22.10;46.00;;;;;;5057503;28;20094;-59
2022/06/01 01:27:53;;;;;;;0.50;0.50;;;22.10;46.00;;;;;;5057311;28;20025;-64
2022/06/01 01:30:37;;;;;;;0.52;0.50;;;22.20;46.10;;;;;;5055005;28;20024;-62
2022/06/01 01:33:17;;;;;;;0.90;0.52;;;22.10;46.10;;;;;;5059006;28;20111;-57
2022/06/01 01:35:47;;;;;;;0.50;0.50;;;22.20;46.10;;;;;;5057327;28;20028;-60
2022/06/01 01:38:40;;;;;;;0.63;0.50;;;22.10;46.00;;;;;;5056519;28;20033;-63
2022/06/01 01:41:24;;;;;;;0.90;0.57;;;22.10;46.10;;;;;;5055073;28;20108;-59
2022/06/01 01:44:00;;;;;;;0.50;0.50;;;22.10;46.00;;;;;;5056759;28;20357;-63
2022/06/01 01:46:27;;;;;;;0.70;0.60;;;22.20;46.10;;;;;;5059053;28;20137;-61
2022/06/01 01:48:53;;;;;;;0.65;0.50;;;22.10;46.00;;;;;;5056399;28;20036;-62
2022/06/01 01:51:21;;;;;;;0.50;0.50;;;22.10;46.00;;;;;;5055341;28;20032;-64
2022/06/01 01:53:47;;;;;;;0.57;0.55;;;22.10;46.00;;;;;;5056912;28;20396;-60
2022/06/01 01:56:31;;;;;;;0.65;0.50;;;22.10;46.00;;;;;;5056272;28;20032;-62
2022/06/01 01:59:32;;;;;;;0.60;0.50;;;22.10;46.00;;;;;;5056848;28;20024;-59
2022/06/01 02:02:09;;;;;;;0.65;0.43;;;22.10;46.00;;;;;;4950112;28;20114;-62
2022/06/01 02:07:37;;;;;;;1.25;0.50;;;22.10;46.00;;;;;;5055594;28;20121;-60
2022/06/01 02:12:47;;;;;;;0.60;0.60;;;22.10;46.00;;;;;;5056542;28;20063;-63
2022/06/01 02:15:30;;;;;;;0.60;0.60;;;22.10;46.00;;;;;;5058370;28;20056;-59
2022/06/01 02:18:01;;;;;;;0.70;0.60;;;22.10;46.00;;;;;;5056140;28;20043;-60
2022/06/01 02:20:36;;;;;;;0.65;0.50;;;22.10;46.00;;;;;;5057890;28;20387;-63
2022/06/01 02:23:02;;;;;;;0.50;0.50;;;22.00;45.90;;;;;;5053486;28;20032;-62
2022/06/01 02:25:29;;;;;;;0.50;0.47;;;22.10;46.00;;;;;;5057357;28;20044;-58
2022/06/01 02:27:57;;;;;;;0.50;0.50;;;22.00;46.00;;;;;;5059192;28;20020;-60
2022/06/01 02:30:27;;;;;;;0.50;0.50;;;22.00;45.90;;;;;;5050902;28;20059;-63
2022/06/01 02:32:55;;;;;;;0.60;0.60;;;22.10;46.00;;;;;;5058996;28;20479;-65
2022/06/01 02:35:23;;;;;;;0.60;0.50;;;22.10;46.00;;;;;;5055643;28;20028;-59
2022/06/01 02:37:54;;;;;;;0.63;0.50;;;22.10;46.00;;;;;;5055433;28;20052;-65
2022/06/01 02:40:23;;;;;;;0.45;0.45;;;22.10;46.00;;;;;;5057682;28;20032;-62
2022/06/01 02:42:50;;;;;;;0.75;0.65;;;22.00;45.90;;;;;;5057356;28;20124;-59
2022/06/01 02:45:20;;;;;;;0.90;0.60;;;22.00;45.90;;;;;;5057134;28;20036;-63
2022/06/01 02:47:46;;;;;;;0.60;0.60;;;22.00;45.90;;;;;;5057671;28;20090;-60
2022/06/01 02:50:18;;;;;;;0.77;0.55;;;22.00;45.90;;;;;;5057029;28;20029;-60
2022/06/01 02:52:44;;;;;;;0.52;0.50;;;22.10;46.00;;;;;;5054543;28;20765;-58
2022/06/01 02:55:12;;;;;;;0.50;0.50;;;22.00;45.90;;;;;;5055747;28;20475;-62
2022/06/01 02:57:38;;;;;;;1.13;0.60;;;22.00;45.90;;;;;;5056633;28;20039;-58
2022/06/01 03:00:07;;;;;;;0.60;0.60;;;22.00;45.90;;;;;;5056227;28;20059;-62
2022/06/01 03:02:38;;;;;;;0.77;0.50;;;22.00;45.90;;;;;;5056715;28;20032;-65
2022/06/01 03:05:04;;;;;;;0.70;0.50;;;22.00;45.90;;;;;;5055899;28;20127;-64
2022/06/01 03:07:29;;;;;;;0.60;0.60;;;22.00;46.00;;;;;;5053882;28;20028;-60
2022/06/01 03:09:55;;;;;;;0.77;0.60;;;22.00;45.90;;;;;;5054367;28;20021;-58
2022/06/01 03:12:22;;;;;;;0.73;0.60;;;22.00;45.90;;;;;;5053852;28;20135;-60
2022/06/01 03:14:47;;;;;;;0.50;0.50;;;22.00;45.90;;;;;;5053285;28;20028;-59
2022/06/01 03:17:13;;;;;;;0.50;0.50;;;22.00;45.90;;;;;;5049598;28;20032;-61
2022/06/01 03:19:38;;;;;;;0.40;0.40;;;22.00;45.90;;;;;;5056693;28;20054;-63
2022/06/01 03:22:04;;;;;;;0.60;0.50;;;22.00;45.90;;;;;;5056031;28;20040;-57
2022/06/01 03:24:30;;;;;;;0.63;0.60;;;22.00;45.90;;;;;;5053685;28;20088;-63
2022/06/01 03:26:56;;;;;;;0.80;0.60;;;22.00;46.00;;;;;;5057289;28;20064;-61
2022/06/01 03:29:24;;;;;;;0.70;0.60;;;22.00;45.90;;;;;;5057064;28;20021;-60
2022/06/01 03:31:50;;;;;;;0.80;0.63;;;22.00;46.00;;;;;;5055976;28;20035;-60
2022/06/01 03:34:17;;;;;;;0.50;0.50;;;22.00;45.90;;;;;;5057008;28;20128;-59
2022/06/01 03:36:42;;;;;;;0.77;0.70;;;22.00;46.00;;;;;;5055245;28;20059;-63
2022/06/01 03:39:08;;;;;;;0.90;0.55;;;22.00;45.90;;;;;;5053533;28;20028;-62
2022/06/01 03:41:34;;;;;;;0.52;0.50;;;21.90;46.40;;;;;;5055867;28;20047;-61
2022/06/01 03:46:43;;;;;;;0.55;0.50;;;22.00;46.00;;;;;;5056401;28;20116;-59
2022/06/01 03:49:09;;;;;;;0.80;0.57;;;22.00;45.90;;;;;;5056520;28;20095;-59
2022/06/01 03:51:36;;;;;;;0.55;0.55;;;21.90;45.90;;;;;;5053348;28;20497;-63
2022/06/01 03:54:02;;;;;;;0.60;0.60;;;22.00;46.00;;;;;;5058531;28;20062;-62
2022/06/01 03:56:27;;;;;;;0.63;0.50;;;21.90;45.90;;;;;;5060017;28;20037;-65
2022/06/01 03:58:53;;;;;;;0.63;0.50;;;22.00;46.00;;;;;;5063471;28;20040;-58
2022/06/01 04:01:19;;;;;;;0.60;0.60;;;21.90;45.90;;;;;;5059128;28;20125;-62
2022/06/01 04:03:46;;;;;;;0.75;0.60;;;22.00;46.00;;;;;;5059710;28;20044;-64
2022/06/01 04:06:12;;;;;;;0.60;0.60;;;21.90;45.90;;;;;;5056676;28;20024;-65
2022/06/01 04:08:38;;;;;;;0.50;0.50;;;22.00;46.00;;;;;;5058153;28;20052;-58
2022/06/01 04:11:03;;;;;;;0.52;0.50;;;21.90;45.90;;;;;;5058803;28;20028;-62
2022/06/01 04:13:29;;;;;;;0.70;0.70;;;21.90;45.90;;;;;;5060029;28;20036;-59
2022/06/01 04:15:55;;;;;;;0.57;0.50;;;21.90;45.90;;;;;;5061461;28;20028;-63
2022/06/01 04:18:22;;;;;;;0.70;0.60;;;21.90;46.00;;;;;;5060688;28;20039;-65
2022/06/01 04:20:50;;;;;;;0.88;0.60;;;21.90;45.90;;;;;;5059569;28;20032;-65
2022/06/01 04:23:15;;;;;;;0.80;0.57;;;21.90;45.90;;;;;;5055526;28;20028;-61
2022/06/01 04:25:41;;;;;;;0.50;0.50;;;21.90;46.00;;;;;;5061097;28;20024;-64
2022/06/01 04:28:07;;;;;;;0.50;0.50;;;21.90;46.00;;;;;;5059859;28;20028;-62
2022/06/01 04:30:33;;;;;;;0.60;0.50;;;21.90;45.90;;;;;;5059638;28;20063;-64
2022/06/01 04:32:58;;;;;;;0.60;0.60;;;21.90;46.00;;;;;;5060193;28;20104;-63
2022/06/01 04:35:25;;;;;;;0.60;0.60;;;21.90;46.00;;;;;;5059067;28;20238;-60
2022/06/01 04:37:50;;;;;;;1.42;0.70;;;21.90;46.00;;;;;;5057049;28;20964;-60
2022/06/01 04:40:18;;;;;;;0.75;0.63;;;21.90;45.90;;;;;;5060028;28;20032;-62
2022/06/01 04:42:44;;;;;;;0.60;0.60;;;21.90;46.00;;;;;;5058095;28;20040;-62
2022/06/01 04:45:12;;;;;;;0.60;0.60;;;21.90;46.00;;;;;;5056828;28;20027;-63
2022/06/01 04:47:38;;;;;;;0.50;0.50;;;21.90;46.00;;;;;;5059938;28;20040;-61
2022/06/01 04:50:05;;;;;;;1.05;0.60;;;21.90;46.00;;;;;;5058586;28;20109;-61
2022/06/01 04:52:31;;;;;;;0.60;0.50;;;21.90;46.00;;;;;;5053961;28;20051;-61
2022/06/01 04:54:56;;;;;;;1.30;0.82;;;21.90;46.00;;;;;;5058647;28;20496;-60
2022/06/01 04:57:22;;;;;;;0.73;0.60;;;21.90;46.00;;;;;;5057545;28;20127;-59
2022/06/01 04:59:48;;;;;;;0.82;0.60;;;21.90;46.00;;;;;;5058968;28;20032;-58
2022/06/01 05:02:14;;;;;;;1.00;0.70;;;21.90;46.00;;;;;;5057218;28;20388;-61
2022/06/01 05:04:40;;;;;;;0.65;0.65;;;21.80;46.00;;;;;;5050113;28;20021;-63
2022/06/01 05:07:06;;;;;;;0.90;0.60;;;21.90;46.10;;;;;;5054059;28;22459;-62
2022/06/01 05:09:31;;;;;;;0.60;0.52;;;21.80;46.00;;;;;;5055007;28;20484;-59
2022/06/01 05:11:57;;;;;;;0.77;0.50;;;21.90;46.10;;;;;;5049327;28;20036;-59
2022/06/01 05:14:23;;;;;;;1.90;0.70;;;21.90;46.10;;;;;;5056522;28;20094;-62
2022/06/01 05:16:49;;;;;;;0.60;0.60;;;21.80;46.50;;;;;;5039695;28;20358;-59
2022/06/01 05:19:14;;;;;;;0.90;0.70;;;21.90;46.10;;;;;;5059183;28;20028;-60
2022/06/01 05:21:40;;;;;;;0.60;0.60;;;21.80;46.00;;;;;;5057965;28;20029;-59
2022/06/01 05:24:06;;;;;;;0.80;0.80;;;21.80;46.10;;;;;;5054570;28;20566;-61
2022/06/01 05:26:32;;;;;;;0.68;0.68;;;21.80;46.10;;;;;;5058001;28;20460;-61
2022/06/01 05:28:58;;;;;;;0.90;0.60;;;21.90;46.50;;;;;;5058691;28;20555;-60
2022/06/01 05:31:23;;;;;;;1.15;0.80;;;21.80;46.10;;;;;;5057312;28;20287;-61
2022/06/01 05:33:49;;;;;;;1.13;0.70;;;21.80;46.20;;;;;;5055763;28;20047;-59
2022/06/01 05:36:16;;;;;;;1.00;0.80;;;21.80;46.20;;;;;;5053413;28;20044;-60
2022/06/01 05:38:42;;;;;;;0.90;0.68;;;21.80;46.20;;;;;;5059329;28;20912;-59
2022/06/01 05:41:08;;;;;;;1.48;0.80;;;21.80;46.20;;;;;;5058047;28;20040;-65
2022/06/01 05:43:35;;;;;;;0.88;0.60;;;21.80;46.20;;;;;;5057843;28;20036;-59
2022/06/01 05:46:01;;;;;;;0.70;0.60;;;21.80;46.20;;;;;;5058308;28;20028;-62
2022/06/01 05:48:27;;;;;;;1.45;0.70;;;21.80;46.20;;;;;;5058228;28;20035;-62
2022/06/01 05:50:52;;;;;;;1.50;0.80;;;21.80;46.20;;;;;;5058437;28;20032;-61
2022/06/01 05:53:18;;;;;;;1.23;0.70;;;21.80;46.20;;;;;;5056903;28;20035;-61
2022/06/01 05:55:44;;;;;;;1.30;0.80;;;21.80;46.30;;;;;;5057949;28;20040;-62
2022/06/01 05:58:25;;;;;;;1.02;0.70;;;21.80;46.30;;;;;;5057042;28;20033;-62
2022/06/01 06:00:52;;;;;;;1.30;0.80;;;21.80;46.20;;;;;;5057965;28;20060;-64
2022/06/01 06:03:19;;;;;;;0.88;0.70;;;21.80;46.30;;;;;;5056347;28;20037;-58
2022/06/01 06:08:30;;;;;;;1.08;0.70;;;21.80;46.30;;;;;;5057514;28;20036;-63
2022/06/01 06:10:56;;;;;;;0.98;0.68;;;21.80;46.30;;;;;;5056751;28;20380;-58
2022/06/01 06:13:22;;;;;;;1.65;0.80;;;21.80;46.30;;;;;;5058066;28;20020;-60
2022/06/01 06:15:48;;;;;;;0.65;0.63;;;21.80;46.30;;;;;;5057437;28;20106;-61
2022/06/01 06:18:15;;;;;;;0.70;0.70;;;21.80;46.30;;;;;;5057597;28;20339;-62
2022/06/01 06:20:42;;;;;;;1.20;0.80;;;21.80;46.30;;;;;;5056510;28;20039;-60
2022/06/01 06:23:09;;;;;;;0.80;0.70;;;21.80;46.40;;;;;;5053856;28;20097;-60
2022/06/01 06:25:35;;;;;;;1.05;0.80;;;21.80;46.90;;;;;;5056359;28;20765;-63
2022/06/01 06:28:00;;;;;;;1.33;0.70;;;21.80;46.90;;;;;;5057604;28;20059;-63
2022/06/01 06:30:26;;;;;;;0.75;0.70;;;21.80;46.40;;;;;;5057131;28;20396;-63
2022/06/01 06:32:52;;;;;;;1.35;0.70;;;21.80;46.90;;;;;;5058098;28;20031;-63
2022/06/01 06:35:18;;;;;;;0.80;0.70;;;21.80;46.40;;;;;;5057133;28;20032;-59
2022/06/01 06:37:43;;;;;;;1.58;0.80;;;21.80;46.40;;;;;;5053760;28;20297;-62
2022/06/01 06:40:10;;;;;;;1.25;0.80;;;21.80;46.40;;;;;;5056417;28;20037;-63
2022/06/01 06:42:36;;;;;;;1.10;0.70;;;21.80;46.40;;;;;;5057744;28;20043;-57
2022/06/01 06:45:02;;;;;;;0.65;0.60;;;21.80;46.40;;;;;;5055962;28;20028;-59
2022/06/01 06:47:29;;;;;;;1.58;0.80;;;21.80;46.50;;;;;;5057088;28;20109;-59
2022/06/01 06:49:54;;;;;;;1.10;0.80;;;21.80;46.50;;;;;;5057309;28;20131;-63
2022/06/01 06:52:20;;;;;;;1.00;0.80;;;21.80;46.50;;;;;;5053817;28;20524;-60
2022/06/01 06:54:46;;;;;;;1.75;0.90;;;21.80;46.50;;;;;;5055212;28;20369;-62
2022/06/01 06:57:12;;;;;;;1.00;0.80;;;21.70;46.40;;;;;;5057445;28;20028;-62
2022/06/01 06:59:37;;;;;;;1.20;0.90;;;21.70;46.50;;;;;;5056692;28;20552;-62
2022/06/01 07:02:03;;;;;;;0.95;0.85;;;21.80;46.50;;;;;;5057087;28;20033;-62
2022/06/01 07:04:29;;;;;;;1.40;1.00;;;21.80;46.60;;;;;;5056885;28;20035;-63
2022/06/01 07:06:54;;;;;;;0.80;0.80;;;21.80;46.60;;;;;;5054317;28;20024;-59
2022/06/01 07:09:20;;;;;;;1.63;0.90;;;21.80;46.60;;;;;;5054989;28;20039;-62
2022/06/01 07:11:46;;;;;;;2.35;1.00;;;21.70;46.50;;;;;;5056738;28;20024;-59
2022/06/01 07:14:11;;;;;;;1.30;0.98;;;21.70;46.50;;;;;;5056982;28;20063;-60
2022/06/01 07:16:37;;;;;;;2.20;1.00;;;21.70;46.60;;;;;;5057397;28;20032;-61
2022/06/01 07:19:05;;;;;;;1.30;0.88;;;21.80;46.60;;;;;;5056842;28;20485;-60
2022/06/01 07:21:32;;;;;;;0.82;0.80;;;21.70;46.60;;;;;;5053441;28;20525;-61
2022/06/01 07:23:57;;;;;;;1.33;0.93;;;21.70;46.60;;;;;;5054213;28;20029;-62
2022/06/01 07:26:26;;;;;;;1.00;0.90;;;21.70;46.60;;;;;;5057296;28;20036;-58
2022/06/01 07:28:52;;;;;;;1.70;0.90;;;21.70;46.60;;;;;;5053567;28;20391;-61
2022/06/01 07:31:19;;;;;;;1.77;0.93;;;21.70;46.60;;;;;;5054105;28;20027;-59
2022/06/01 07:33:46;;;;;;;1.45;1.00;;;21.70;46.60;;;;;;5057137;28;20434;-62
2022/06/01 07:36:14;;;;;;;1.20;0.90;;;21.70;46.60;;;;;;5053389;28;20318;-62
2022/06/01 07:44:42;;;;;;;1.30;1.00;;;21.70;46.60;;;;;;5007788;28;20742;-57
2022/06/01 07:47:09;;;;;;;2.50;1.00;;;21.70;46.70;;;;;;5055469;28;20483;-59
2022/06/01 07:49:36;;;;;;;1.42;0.90;;;21.70;46.70;;;;;;5056460;28;20146;-58
2022/06/01 07:52:07;;;;;;;1.80;1.13;;;21.70;46.70;;;;;;5052822;28;20036;-60
2022/06/01 07:54:36;;;;;;;1.48;0.90;;;21.70;46.70;;;;;;5053249;28;20070;-59
2022/06/01 07:57:01;;;;;;;1.00;0.90;;;21.70;46.70;;;;;;5056058;28;20219;-61
2022/06/01 07:59:27;;;;;;;0.95;0.80;;;21.70;46.70;;;;;;5055224;28;20366;-61
2022/06/01 08:01:52;;;;;;;1.00;0.85;;;21.70;46.60;;;;;;5055687;28;20032;-61
2022/06/01 08:04:18;;;;;;;1.20;0.90;;;21.70;46.70;;;;;;5054910;28;20124;-61
2022/06/01 08:06:44;;;;;;;1.33;0.93;;;21.80;46.70;;;;;;5054533;28;20037;-62
2022/06/01 08:09:09;;;;;;;1.65;1.02;;;21.70;46.70;;;;;;5053237;28;20020;-58
2022/06/01 08:14:19;;;;;;;1.40;0.90;;;21.70;46.70;;;;;;5056680;28;20042;-63
2022/06/01 08:16:45;;;;;;;1.65;1.00;;;21.70;46.70;;;;;;5056175;28;20488;-62
2022/06/01 08:19:11;;;;;;;1.20;0.90;;;21.70;46.70;;;;;;5037999;28;20032;-59
2022/06/01 08:21:38;;;;;;;1.10;0.85;;;21.70;46.70;;;;;;5052662;28;20028;-58
2022/06/01 08:24:05;;;;;;;1.30;0.98;;;21.70;46.70;;;;;;5053951;28;20044;-62
2022/06/01 08:26:31;;;;;;;1.10;0.90;;;21.70;46.70;;;;;;5056849;28;20475;-58
2022/06/01 08:28:57;;;;;;;1.13;0.90;;;21.70;46.70;;;;;;5055127;28;20456;-62
2022/06/01 08:31:27;;;;;;;1.55;1.02;;;21.70;46.70;;;;;;5054316;28;20133;-56
2022/06/01 08:33:53;;;;;;;1.85;1.10;;;21.70;46.70;;;;;;5055441;28;20090;-62
2022/06/01 08:36:20;;;;;;;0.80;0.73;;;21.70;46.70;;;;;;5054106;28;20020;-55
2022/06/01 08:38:45;;;;;;;1.42;1.00;;;21.70;46.70;;;;;;5054750;28;20028;-61
2022/06/01 08:41:14;;;;;;;1.15;0.80;;;21.70;46.70;;;;;;5057669;28;20487;-62
2022/06/01 08:43:49;;;;;;;1.17;0.90;;;21.70;46.70;;;;;;5057982;28;20058;-57
2022/06/01 08:46:15;;;;;;;1.15;0.90;;;21.70;46.70;;;;;;5060458;28;20214;-60
2022/06/01 08:48:46;;;;;;;1.42;0.90;;;21.70;46.70;;;;;;5057725;28;20029;-61
2022/06/01 08:51:12;;;;;;;1.27;0.90;;;21.70;46.70;;;;;;5057065;28;20112;-59
2022/06/01 08:53:39;;;;;;;1.13;0.90;;;21.70;46.70;;;;;;5057279;28;20029;-57
2022/06/01 08:56:13;;;;;;;1.17;0.90;;;21.70;46.70;;;;;;5059542;28;20060;-57
2022/06/01 08:58:51;;;;;;;1.83;0.90;;;21.70;46.70;;;;;;5058748;28;20476;-60
2022/06/01 09:01:26;;;;;;;0.88;0.80;;;21.70;46.70;;;;;;5057721;28;21102;-57
2022/06/01 09:04:29;;;;;;;0.80;0.80;;;21.70;46.70;;;;;;5057338;28;20033;-62
2022/06/01 09:07:34;;;;;;;0.82;0.70;;;21.70;46.70;;;;;;5055587;28;20048;-62
2022/06/01 09:10:30;;;;;;;1.20;0.90;;;21.70;46.70;;;;;;5032040;28;20127;-62
2022/06/01 09:13:02;;;;;;;1.10;0.93;;;21.70;46.70;;;;;;5058029;28;20042;-60
2022/06/01 09:15:38;;;;;;;1.45;0.90;;;21.70;46.70;;;;;;5058708;28;20037;-58
2022/06/01 09:18:03;;;;;;;1.20;0.90;;;21.70;46.70;;;;;;5057670;28;20369;-61
2022/06/01 09:23:15;;;;;;;1.13;0.80;;;21.70;46.70;;;;;;5056336;28;20035;-58
2022/06/01 09:25:50;;;;;;;1.30;0.95;;;21.70;46.70;;;;;;5050405;28;20098;-63
2022/06/01 09:28:21;;;;;;;1.08;0.90;;;21.70;46.80;;;;;;5051951;28;20042;-60
2022/06/01 09:31:06;;;;;;;0.95;0.80;;;21.70;46.80;;;;;;5054237;28;20044;-58
2022/06/01 09:33:38;;;;;;;1.13;0.80;;;21.70;46.70;;;;;;5057429;28;20461;-62
2022/06/01 09:36:06;;;;;;;1.00;0.85;;;21.80;46.80;;;;;;5052792;28;20094;-61
2022/06/01 09:38:40;;;;;;;1.08;0.82;;;21.80;46.80;;;;;;5056073;28;20402;-61
2022/06/01 09:41:23;;;;;;;1.67;0.90;;;21.70;46.70;;;;;;5056724;28;20142;-63
2022/06/01 09:44:17;;;;;;;0.70;0.70;;;21.70;46.70;;;;;;5051217;28;20032;-57
2022/06/01 09:46:58;;;;;;;0.82;0.80;;;21.70;46.70;;;;;;5047968;28;20054;-58
2022/06/01 09:49:25;;;;;;;1.17;0.90;;;21.70;46.70;;;;;;5058180;28;20028;-62
2022/06/01 09:51:58;;;;;;;1.05;0.77;;;21.80;46.80;;;;;;5055918;28;20028;-57
2022/06/01 09:54:32;;;;;;;0.90;0.82;;;21.70;46.70;;;;;;5056619;28;20032;-59
2022/06/01 09:57:28;;;;;;;1.20;0.82;;;21.80;46.80;;;;;;5059040;28;20116;-58
2022/06/01 10:08:21;;;;;;;0.93;0.70;;;21.80;46.70;;;;;;5054996;28;20992;-62
2022/06/01 10:11:01;;;;;;;1.15;0.70;;;21.80;46.70;;;;;;5054860;28;20155;-63
2022/06/01 10:13:31;;;;;;;0.90;0.65;;;21.80;46.80;;;;;;5053575;28;20032;-59
2022/06/01 10:16:07;;;;;;;1.10;0.70;;;21.80;46.70;;;;;;5035482;28;20028;-58
2022/06/01 10:18:36;;;;;;;1.38;0.80;;;21.80;46.70;;;;;;5055078;28;20357;-58
2022/06/01 10:21:11;;;;;;;1.33;0.73;;;21.80;46.70;;;;;;5051777;28;20468;-59
2022/06/01 10:24:04;;;;;;;1.40;0.80;;;21.80;46.70;;;;;;5052476;28;20060;-61
2022/06/01 10:26:37;;;;;;;1.33;0.80;;;21.80;46.70;;;;;;5053367;28;20028;-63
2022/06/01 10:29:13;;;;;;;0.70;0.65;;;21.80;46.70;;;;;;5053289;28;20093;-61
2022/06/01 10:31:54;;;;;;;1.55;0.80;;;21.80;46.70;;;;;;5054875;28;20507;-60
2022/06/01 10:34:45;;;;;;;1.20;0.80;;;21.80;46.70;;;;;;5054082;28;20380;-58
2022/06/01 10:37:23;;;;;;;0.70;0.68;;;21.80;46.70;;;;;;5052134;28;20032;-58
2022/06/01 10:40:15;;;;;;;0.82;0.70;;;21.80;46.70;;;;;;5053114;28;20514;-62
2022/06/01 10:45:47;;;;;;;0.88;0.70;;;21.80;46.60;;;;;;5054584;28;20063;-62
2022/06/01 10:48:32;;;;;;;1.88;0.80;;;21.80;46.70;;;;;;5056348;28;20046;-59
2022/06/01 10:51:08;;;;;;;0.80;0.70;;;21.80;46.60;;;;;;5055491;28;20054;-60
2022/06/01 10:53:57;;;;;;;0.90;0.70;;;21.80;46.70;;;;;;5055174;28;20020;-62
2022/06/01 10:56:23;;;;;;;0.73;0.63;;;21.80;46.60;;;;;;5057431;28;20413;-58
2022/06/01 10:58:52;;;;;;;0.70;0.68;;;21.80;46.60;;;;;;5057391;28;20028;-61
2022/06/01 11:01:36;;;;;;;1.23;0.80;;;21.80;46.60;;;;;;5056826;28;20046;-62
2022/06/01 11:04:24;;;;;;;0.88;0.77;;;21.80;46.60;;;;;;5055003;28;20449;-62
2022/06/01 11:07:07;;;;;;;0.90;0.75;;;21.80;46.60;;;;;;5054099;28;20102;-63
2022/06/01 11:09:38;;;;;;;1.50;0.70;;;21.80;46.60;;;;;;5056723;28;20081;-59
2022/06/01 11:12:28;;;;;;;1.40;0.70;;;21.80;46.60;;;;;;5038565;28;20058;-58
2022/06/01 11:15:06;;;;;;;1.05;0.90;;;21.80;46.60;;;;;;5056524;28;20055;-62
2022/06/01 11:17:41;;;;;;;1.08;0.82;;;21.80;46.70;;;;;;5055551;28;20056;-57
2022/06/01 11:20:16;;;;;;;1.20;0.70;;;21.80;46.80;;;;;;5056542;28;20036;-57
2022/06/01 11:23:09;;;;;;;1.33;0.70;;;21.80;47.10;;;;;;5053495;28;20032;-59
2022/06/01 11:25:44;;;;;;;1.75;0.90;;;21.80;47.50;;;;;;5036116;28;20024;-62
2022/06/01 11:28:34;;;;;;;2.92;1.10;;;21.80;47.70;;;;;;5057893;28;20366;-63
2022/06/01 11:31:06;;;;;;;3.78;0.85;;;21.80;48.00;;;;;;5056660;28;20075;-58
2022/06/01 11:33:39;;;;;;;2.75;0.80;;;21.90;48.10;;;;;;5057485;28;20477;-59
2022/06/01 11:36:22;;;;;;;2.83;0.90;;;21.90;48.20;;;;;;5053878;28;20109;-60
2022/06/01 11:39:13;;;;;;;1.30;0.77;;;21.90;48.20;;;;;;5056462;28;20051;-62
2022/06/01 11:41:50;;;;;;;1.75;0.90;;;21.90;48.10;;;;;;5057398;28;20098;-63
2022/06/01 11:44:23;;;;;;;1.95;0.90;;;21.90;48.10;;;;;;5056964;28;20350;-59
2022/06/01 11:47:13;;;;;;;1.73;0.80;;;21.90;48.10;;;;;;5055972;28;20028;-63
2022/06/01 11:49:59;;;;;;;1.50;0.70;;;21.90;48.60;;;;;;5058891;28;20139;-63
2022/06/01 11:52:29;;;;;;;1.70;0.95;;;21.90;48.10;;;;;;5055959;28;20036;-60
2022/06/01 11:55:11;;;;;;;1.30;0.85;;;21.90;47.80;;;;;;5055814;28;20126;-58
2022/06/01 11:57:39;;;;;;;0.85;0.70;;;21.90;48.10;;;;;;5056546;28;20101;-63
2022/06/01 12:00:31;;;;;;;1.38;0.77;;;21.90;48.00;;;;;;5056058;28;20116;-57
2022/06/01 12:03:13;;;;;;;1.77;0.90;;;21.90;48.40;;;;;;5054943;28;20060;-61
2022/06/01 12:06:04;;;;;;;1.55;0.80;;;21.90;47.90;;;;;;5055105;28;20028;-60
2022/06/01 12:08:56;;;;;;;1.83;0.88;;;21.90;48.00;;;;;;5056024;28;20036;-61
2022/06/01 12:11:46;;;;;;;1.77;0.88;;;21.90;47.70;;;;;;5056648;28;20038;-62
2022/06/01 12:14:36;;;;;;;0.95;0.80;;;21.90;47.70;;;;;;5058964;28;20036;-60
2022/06/01 12:17:27;;;;;;;1.52;0.90;;;21.90;47.60;;;;;;5059693;28;20478;-59
2022/06/01 12:20:39;;;;;;;0.98;0.73;;;21.90;47.60;;;;;;5051806;28;20040;-58
2022/06/01 12:28:57;;;;;;;1.50;0.90;;;21.90;47.60;;;;;;5060384;28;20177;-58
2022/06/01 12:31:27;;;;;;;1.55;0.80;;;21.90;47.60;;;;;;5057847;28;20444;-59
2022/06/01 12:34:17;;;;;;;2.63;0.80;;;21.90;47.50;;;;;;5060162;28;20091;-63
2022/06/01 12:36:50;;;;;;;1.20;1.00;;;21.90;47.50;;;;;;5057847;28;20079;-61
2022/06/01 12:39:31;;;;;;;0.80;0.70;;;21.90;47.60;;;;;;5058263;28;20124;-59
2022/06/01 12:42:30;;;;;;;0.85;0.70;;;21.90;47.70;;;;;;5059383;28;20488;-58
2022/06/01 12:44:59;;;;;;;1.23;0.63;;;21.90;47.60;;;;;;5059804;28;20163;-62
2022/06/01 12:47:30;;;;;;;1.25;0.80;;;21.90;47.50;;;;;;5059577;28;20047;-58
2022/06/01 12:49:56;;;;;;;1.67;0.85;;;21.90;47.60;;;;;;5059495;28;20322;-62
2022/06/01 12:52:24;;;;;;;1.27;0.80;;;21.90;47.60;;;;;;5057953;28;20229;-63
2022/06/01 12:54:50;;;;;;;1.15;0.80;;;21.90;47.60;;;;;;5057914;28;20089;-56
2022/06/01 12:57:22;;;;;;;1.35;0.80;;;22.00;47.50;;;;;;5059402;28;20031;-59
2022/06/01 13:00:03;;;;;;;1.23;0.85;;;21.90;47.50;;;;;;5059732;28;20032;-58
2022/06/01 13:02:32;;;;;;;1.25;0.70;;;22.00;47.50;;;;;;5059086;28;20048;-63
2022/06/01 13:04:58;;;;;;;1.25;0.80;;;21.90;47.40;;;;;;5058177;28;20063;-61
2022/06/01 13:07:33;;;;;;;1.08;0.77;;;22.00;47.50;;;;;;5055484;28;20680;-59
2022/06/01 13:10:07;;;;;;;0.80;0.70;;;21.90;47.40;;;;;;5059001;28;20445;-62
2022/06/01 13:12:33;;;;;;;0.98;0.80;;;22.00;47.50;;;;;;5060290;28;20360;-60
2022/06/01 13:15:26;;;;;;;1.17;0.77;;;22.00;47.90;;;;;;5056809;28;20033;-62
2022/06/01 13:18:02;;;;;;;1.40;0.80;;;21.90;47.30;;;;;;5057911;28;20094;-63
2022/06/01 13:21:00;;;;;;;0.90;0.75;;;22.00;47.30;;;;;;5053957;28;20134;-59
2022/06/01 13:23:54;;;;;;;0.95;0.70;;;22.00;47.80;;;;;;5055819;28;20094;-58
2022/06/01 13:26:46;;;;;;;1.60;0.80;;;22.00;47.20;;;;;;5056878;28;20097;-59
2022/06/01 13:29:18;;;;;;;1.27;0.80;;;22.00;47.10;;;;;;5058510;28;20447;-60
2022/06/01 13:31:49;;;;;;;1.65;0.80;;;22.00;47.10;;;;;;5057098;28;20391;-60
2022/06/01 13:34:30;;;;;;;1.23;0.80;;;22.00;47.00;;;;;;5059583;28;20028;-59
2022/06/01 13:37:21;;;;;;;1.90;0.85;;;22.00;47.10;;;;;;5055847;28;20036;-64
2022/06/01 13:39:56;;;;;;;0.93;0.70;;;22.00;47.00;;;;;;5054941;28;20028;-62
2022/06/01 13:42:33;;;;;;;2.33;0.90;;;22.00;47.00;;;;;;5058188;28;20158;-63
2022/06/01 13:45:06;;;;;;;1.67;0.90;;;22.00;47.00;;;;;;5040290;28;20029;-59
2022/06/01 13:47:53;;;;;;;1.30;0.80;;;22.00;47.00;;;;;;5058436;28;20477;-63
2022/06/01 13:50:27;;;;;;;1.33;0.80;;;22.00;47.00;;;;;;5058176;28;20034;-57
2022/06/01 13:52:53;;;;;;;1.33;0.75;;;22.00;46.90;;;;;;5055196;28;20028;-62
2022/06/01 13:56:00;;;;;;;1.58;0.70;;;22.00;46.90;;;;;;5054215;28;20523;-62